createdAt,value
2022-10-17T00:01:52.734Z,5.60
2022-10-17T00:04:20.089Z,4.50
2022-10-17T00:06:47.282Z,5.47
2022-10-17T00:09:14.421Z,5.17
2022-10-17T00:11:41.819Z,5.50
2022-10-17T00:14:09.104Z,5.90
2022-10-17T00:16:37.497Z,5.57
2022-10-17T00:19:05.059Z,6.30
2022-10-17T00:21:32.256Z,5.43
2022-10-17T00:23:59.679Z,6.53
2022-10-17T00:26:29.686Z,5.53
2022-10-17T00:28:57.624Z,7.13
2022-10-17T00:31:24.903Z,5.77
2022-10-17T00:33:52.145Z,5.83
2022-10-17T00:36:23.463Z,5.50
2022-10-17T00:38:51.768Z,5.47
2022-10-17T00:41:19.680Z,5.50
2022-10-17T00:43:50.853Z,5.10
2022-10-17T00:46:18.103Z,5.40
2022-10-17T00:48:45.405Z,5.37
2022-10-17T00:51:12.505Z,6.03
2022-10-17T00:53:39.751Z,6.30
2022-10-17T00:56:07.183Z,5.67
2022-10-17T00:58:34.431Z,6.43
2022-10-17T01:01:02.343Z,5.50
2022-10-17T01:03:29.576Z,5.60
2022-10-17T01:05:56.712Z,5.43
2022-10-17T01:08:23.923Z,6.10
2022-10-17T01:11:17.581Z,6.23
2022-10-17T01:13:50.401Z,6.07
2022-10-17T01:16:29.849Z,6.07
2022-10-17T01:19:03.776Z,6.43
2022-10-17T01:21:42.681Z,6.40
2022-10-17T01:24:38.972Z,6.40
2022-10-17T01:27:27.070Z,5.37
2022-10-17T01:30:17.964Z,5.87
2022-10-17T01:32:46.537Z,6.00
2022-10-17T01:35:24.518Z,6.33
2022-10-17T01:38:18.205Z,5.23
2022-10-17T01:40:56.562Z,6.20
2022-10-17T01:43:27.936Z,5.77
2022-10-17T01:46:15.331Z,6.10
2022-10-17T01:48:43.452Z,7.50
2022-10-17T01:51:12.312Z,5.10
2022-10-17T01:53:40.617Z,5.40
2022-10-17T01:56:08.099Z,4.87
2022-10-17T01:58:37.449Z,5.47
2022-10-17T02:01:05.797Z,5.30
2022-10-17T02:03:34.527Z,5.03
2022-10-17T02:06:01.782Z,5.00
2022-10-17T02:08:29.561Z,4.77
2022-10-17T02:11:04.329Z,5.43
2022-10-17T02:13:50.530Z,4.27
2022-10-17T02:16:22.011Z,5.50
2022-10-17T02:19:08.839Z,3.97
2022-10-17T02:21:42.451Z,4.47
2022-10-17T02:24:18.953Z,4.47
2022-10-17T02:26:48.804Z,4.73
2022-10-17T02:29:23.231Z,4.37
2022-10-17T02:32:00.693Z,4.90
2022-10-17T02:34:29.170Z,4.67
2022-10-17T02:36:57.110Z,4.63
2022-10-17T02:39:24.581Z,4.50
2022-10-17T02:41:52.021Z,4.50
2022-10-17T02:44:19.214Z,5.63
2022-10-17T02:46:48.591Z,4.00
2022-10-17T02:49:19.678Z,5.20
2022-10-17T02:52:07.107Z,5.20
2022-10-17T02:54:47.489Z,4.33
2022-10-17T02:57:37.913Z,4.47
2022-10-17T03:00:05.855Z,4.73
2022-10-17T03:02:40.452Z,5.90
2022-10-17T03:05:08.185Z,3.97
2022-10-17T03:07:35.368Z,5.50
2022-10-17T03:10:02.536Z,4.83
2022-10-17T03:12:30.004Z,4.70
2022-10-17T03:14:57.471Z,4.00
2022-10-17T03:17:24.749Z,4.87
2022-10-17T03:19:51.939Z,4.30
2022-10-17T03:22:19.099Z,4.07
2022-10-17T03:24:46.271Z,4.50
2022-10-17T03:27:13.469Z,5.47
2022-10-17T03:29:40.581Z,5.07
2022-10-17T03:32:07.722Z,5.10
2022-10-17T03:34:34.992Z,5.40
2022-10-17T03:37:02.148Z,4.53
2022-10-17T03:39:29.528Z,3.73
2022-10-17T03:41:56.692Z,5.40
2022-10-17T03:44:23.915Z,4.83
2022-10-17T03:46:51.134Z,8.90
2022-10-17T03:49:18.423Z,4.30
2022-10-17T03:51:45.618Z,4.50
2022-10-17T03:54:12.791Z,4.57
2022-10-17T03:56:39.995Z,4.93
2022-10-17T03:59:07.143Z,4.47
2022-10-17T04:01:34.464Z,4.30
2022-10-17T04:04:01.864Z,5.23
2022-10-17T04:06:29.103Z,5.20
2022-10-17T04:08:56.256Z,4.40
2022-10-17T04:11:23.521Z,5.60
2022-10-17T04:13:57.277Z,4.73
2022-10-17T04:16:24.461Z,4.90
2022-10-17T04:18:55.433Z,5.00
2022-10-17T04:21:22.955Z,3.97
2022-10-17T04:23:53.258Z,5.83
2022-10-17T04:26:20.386Z,4.40
2022-10-17T04:28:47.551Z,4.23
2022-10-17T04:31:14.907Z,4.80
2022-10-17T04:33:42.121Z,4.30
2022-10-17T04:36:11.513Z,4.37
2022-10-17T04:38:38.668Z,4.57
2022-10-17T04:41:06.542Z,3.90
2022-10-17T04:43:34.321Z,5.03
2022-10-17T04:46:02.014Z,4.27
2022-10-17T04:48:29.314Z,4.33
2022-10-17T04:51:00.424Z,4.57
2022-10-17T04:53:27.665Z,4.33
2022-10-17T04:55:54.823Z,6.40
2022-10-17T04:58:21.998Z,4.13
2022-10-17T05:00:49.163Z,4.13
2022-10-17T05:03:16.488Z,6.70
2022-10-17T05:05:43.665Z,4.30
2022-10-17T05:08:11.247Z,4.17
2022-10-17T05:10:38.931Z,4.80
2022-10-17T05:13:06.120Z,5.30
2022-10-17T05:15:33.361Z,6.30
2022-10-17T05:18:00.478Z,4.50
2022-10-17T05:20:27.684Z,5.00
2022-10-17T05:22:54.968Z,4.80
2022-10-17T05:25:22.163Z,5.63
2022-10-17T05:27:49.330Z,4.87
2022-10-17T05:30:16.505Z,4.83
2022-10-17T05:32:43.721Z,4.27
2022-10-17T05:35:11.077Z,4.83
2022-10-17T05:37:38.334Z,4.80
2022-10-17T05:40:05.801Z,6.10
2022-10-17T05:42:33.453Z,4.17
2022-10-17T05:45:00.917Z,4.97
2022-10-17T05:47:28.337Z,4.67
2022-10-17T05:49:55.860Z,5.40
2022-10-17T05:52:23.000Z,5.37
2022-10-17T05:54:50.249Z,6.93
2022-10-17T05:57:17.767Z,7.93
2022-10-17T05:59:44.935Z,5.20
2022-10-17T06:02:15.461Z,7.10
2022-10-17T06:04:45.922Z,5.30
2022-10-17T06:07:13.537Z,5.90
2022-10-17T06:09:40.756Z,5.20
2022-10-17T06:12:08.132Z,8.37
2022-10-17T06:14:35.347Z,5.83
2022-10-17T06:17:02.635Z,8.90
2022-10-17T06:19:29.941Z,5.80
2022-10-17T06:21:57.193Z,6.33
2022-10-17T06:24:24.454Z,5.47
2022-10-17T06:26:51.761Z,5.87
2022-10-17T06:29:19.007Z,5.13
2022-10-17T06:31:46.161Z,5.93
2022-10-17T06:34:13.343Z,5.27
2022-10-17T06:36:40.462Z,7.00
2022-10-17T06:39:07.677Z,6.17
2022-10-17T06:41:34.770Z,5.97
2022-10-17T06:44:02.212Z,5.07
2022-10-17T06:46:29.889Z,6.97
2022-10-17T06:48:57.172Z,6.57
2022-10-17T06:51:24.370Z,6.13
2022-10-17T06:53:51.541Z,6.00
2022-10-17T06:56:19.440Z,6.07
2022-10-17T06:58:47.726Z,6.30
2022-10-17T07:01:14.956Z,9.03
2022-10-17T07:03:42.158Z,5.73
2022-10-17T07:06:11.057Z,4.47
2022-10-17T07:08:38.330Z,6.50
2022-10-17T07:11:11.928Z,4.77
2022-10-17T07:13:39.459Z,5.47
2022-10-17T07:16:07.030Z,4.20
2022-10-17T07:18:34.292Z,4.33
2022-10-17T07:21:01.654Z,5.70
2022-10-17T07:23:28.794Z,5.30
2022-10-17T07:26:00.498Z,6.23
2022-10-17T07:28:28.731Z,4.87
2022-10-17T07:30:56.076Z,4.93
2022-10-17T07:33:23.403Z,5.47
2022-10-17T07:35:52.634Z,5.73
2022-10-17T07:38:19.776Z,6.90
2022-10-17T07:40:47.161Z,5.47
2022-10-17T07:43:14.243Z,5.83
2022-10-17T07:45:41.942Z,5.00
2022-10-17T07:48:09.076Z,4.60
2022-10-17T07:50:36.176Z,6.70
2022-10-17T07:53:03.311Z,4.47
2022-10-17T07:55:30.593Z,8.47
2022-10-17T07:57:58.346Z,6.63
2022-10-17T08:00:25.460Z,5.13
2022-10-17T08:02:52.574Z,5.07
2022-10-17T08:05:19.824Z,4.60
2022-10-17T08:07:47.062Z,7.07
2022-10-17T08:10:14.672Z,6.10
2022-10-17T08:12:41.909Z,4.50
2022-10-17T08:15:09.398Z,4.73
2022-10-17T08:17:36.867Z,5.87
2022-10-17T08:20:04.710Z,4.80
2022-10-17T08:22:32.267Z,5.77
2022-10-17T08:24:59.733Z,5.43
2022-10-17T08:27:28.856Z,6.50
2022-10-17T08:29:55.969Z,4.73
2022-10-17T08:32:24.980Z,5.20
2022-10-17T08:34:52.325Z,5.23
2022-10-17T08:37:19.469Z,5.87
2022-10-17T08:39:46.680Z,4.80
2022-10-17T08:42:16.621Z,6.83
2022-10-17T08:45:03.978Z,6.33
2022-10-17T08:47:38.388Z,5.57
2022-10-17T08:50:06.757Z,5.23
2022-10-17T08:52:47.889Z,7.73
2022-10-17T08:55:28.318Z,4.77
2022-10-17T08:57:55.485Z,4.67
2022-10-17T09:00:22.943Z,6.57
2022-10-17T09:02:53.929Z,6.47
2022-10-17T09:05:39.486Z,4.90
2022-10-17T09:08:06.563Z,5.30
2022-10-17T09:11:00.139Z,4.73
2022-10-17T09:14:05.755Z,5.20
2022-10-17T09:16:51.792Z,6.10
2022-10-17T09:19:24.284Z,13.80
2022-10-17T09:22:00.217Z,3.70
2022-10-17T09:24:33.170Z,3.40
2022-10-17T09:27:00.393Z,3.70
2022-10-17T09:29:32.423Z,5.23
2022-10-17T09:32:03.569Z,3.17
2022-10-17T09:34:31.109Z,3.10
2022-10-17T09:37:01.474Z,3.70
2022-10-17T09:39:31.993Z,5.87
2022-10-17T09:42:00.172Z,6.20
2022-10-17T09:44:30.313Z,3.57
2022-10-17T09:47:03.288Z,5.00
2022-10-17T09:49:32.860Z,3.33
2022-10-17T09:52:00.791Z,2.70
2022-10-17T09:54:29.943Z,2.80
2022-10-17T09:56:57.759Z,3.40
2022-10-17T09:59:34.233Z,3.13
2022-10-17T10:02:15.710Z,3.17
2022-10-17T10:05:11.255Z,3.00
2022-10-17T10:07:39.372Z,3.27
2022-10-17T10:10:07.642Z,4.73
2022-10-17T10:12:36.488Z,3.90
2022-10-17T10:15:03.971Z,3.03
2022-10-17T10:17:34.607Z,3.30
2022-10-17T10:20:01.807Z,2.70
2022-10-17T10:22:29.204Z,3.40
2022-10-17T10:25:09.363Z,3.47
2022-10-17T10:27:36.512Z,4.73
2022-10-17T10:30:03.887Z,4.37
2022-10-17T10:32:32.265Z,4.07
2022-10-17T10:35:05.357Z,2.87
2022-10-17T10:37:44.546Z,3.03
2022-10-17T10:40:21.482Z,3.47
2022-10-17T10:42:50.099Z,5.87
2022-10-17T10:45:43.259Z,3.30
2022-10-17T10:48:21.684Z,2.97
2022-10-17T10:50:56.447Z,5.50
2022-10-17T10:53:42.432Z,3.20
2022-10-17T10:56:23.739Z,2.57
2022-10-17T10:58:50.894Z,3.10
2022-10-17T11:01:36.567Z,3.20
2022-10-17T11:04:07.160Z,4.40
2022-10-17T11:06:35.895Z,7.33
2022-10-17T11:09:12.223Z,3.00
2022-10-17T11:11:49.527Z,3.33
2022-10-17T11:14:40.091Z,5.33
2022-10-17T11:17:10.888Z,2.97
2022-10-17T11:19:40.261Z,3.03
2022-10-17T11:22:28.199Z,2.70
2022-10-17T11:25:06.675Z,2.70
2022-10-17T11:27:33.749Z,3.10
2022-10-17T11:30:00.851Z,4.37
2022-10-17T11:32:31.783Z,1.90
2022-10-17T11:35:01.827Z,3.43
2022-10-17T11:37:30.434Z,3.50
2022-10-17T11:40:20.409Z,3.27
2022-10-17T11:42:55.700Z,3.50
2022-10-17T11:45:22.964Z,5.93
2022-10-17T11:47:58.259Z,3.60
2022-10-17T11:53:14.919Z,3.17
2022-10-17T11:55:42.121Z,4.40
2022-10-17T11:58:23.758Z,2.80
2022-10-17T12:00:56.884Z,3.30
2022-10-17T12:03:23.980Z,3.93
2022-10-17T12:05:58.741Z,2.80
2022-10-17T12:08:31.899Z,3.30
2022-10-17T12:11:07.662Z,4.37
2022-10-17T12:13:35.710Z,2.50
2022-10-17T12:16:18.178Z,3.00
2022-10-17T12:18:45.357Z,4.50
2022-10-17T12:21:12.449Z,2.80
2022-10-17T12:23:40.941Z,4.60
2022-10-17T12:26:09.455Z,2.63
2022-10-17T12:28:43.265Z,2.90
2022-10-17T12:31:16.567Z,2.47
2022-10-17T12:33:50.064Z,2.80
2022-10-17T12:36:22.784Z,2.37
2022-10-17T12:38:50.548Z,3.00
2022-10-17T12:41:17.806Z,3.00
2022-10-17T12:43:45.994Z,3.23
2022-10-17T12:46:13.290Z,2.87
2022-10-17T12:48:40.391Z,2.60
2022-10-17T12:51:34.687Z,2.80
2022-10-17T12:54:01.315Z,2.80
2022-10-17T12:56:44.610Z,6.03
2022-10-17T12:59:22.323Z,4.30
2022-10-17T13:01:51.185Z,2.87
2022-10-17T13:04:18.530Z,4.00
2022-10-17T13:06:50.498Z,2.40
2022-10-17T13:09:28.245Z,5.80
2022-10-17T13:11:55.575Z,2.70
2022-10-17T13:14:22.786Z,3.03
2022-10-17T13:16:52.986Z,2.70
2022-10-17T13:19:23.200Z,4.17
2022-10-17T13:21:59.910Z,3.83
2022-10-17T13:24:31.500Z,3.10
2022-10-17T13:26:58.626Z,4.90
2022-10-17T13:29:25.995Z,3.50
2022-10-17T13:31:54.314Z,2.63
2022-10-17T13:34:23.173Z,2.90
2022-10-17T13:36:54.456Z,2.77
2022-10-17T13:39:38.541Z,3.00
2022-10-17T13:42:23.979Z,2.87
2022-10-17T13:44:51.126Z,2.53
2022-10-17T13:47:22.702Z,4.97
2022-10-17T13:49:52.906Z,3.07
2022-10-17T13:52:23.199Z,2.60
2022-10-17T13:54:51.195Z,3.20
2022-10-17T13:57:20.271Z,5.03
2022-10-17T13:59:50.122Z,2.63
2022-10-17T14:02:18.084Z,5.83
2022-10-17T14:05:15.129Z,2.70
2022-10-17T14:07:58.311Z,4.80
2022-10-17T14:10:23.976Z,6.10
2022-10-17T14:12:51.973Z,2.47
2022-10-17T14:15:19.146Z,2.40
2022-10-17T14:17:46.337Z,1.90
2022-10-17T14:20:57.566Z,2.33
2022-10-17T14:23:26.711Z,2.17
2022-10-17T14:26:04.155Z,2.80
2022-10-17T14:28:31.353Z,2.40
2022-10-17T14:31:09.815Z,1.87
2022-10-17T14:33:38.566Z,2.90
2022-10-17T14:36:08.611Z,2.50
2022-10-17T14:38:36.061Z,3.60
2022-10-17T14:41:41.307Z,2.27
2022-10-17T14:44:02.876Z,2.27
2022-10-17T14:46:30.069Z,5.70
2022-10-17T14:48:59.017Z,2.30
2022-10-17T14:51:26.133Z,2.10
2022-10-17T14:54:05.534Z,5.10
2022-10-17T14:56:52.559Z,3.10
2022-10-17T14:59:51.621Z,2.33
2022-10-17T15:02:11.102Z,2.63
2022-10-17T15:04:38.223Z,2.30
2022-10-17T15:07:05.380Z,3.33
2022-10-17T15:09:32.568Z,2.57
2022-10-17T15:12:02.951Z,2.10
2022-10-17T15:14:30.119Z,2.90
2022-10-17T15:16:57.199Z,2.77
2022-10-17T15:19:24.346Z,2.10
2022-10-17T15:21:51.552Z,2.80
2022-10-17T15:24:18.648Z,2.60
2022-10-17T15:26:45.882Z,2.53
2022-10-17T15:29:16.291Z,2.90
2022-10-17T15:31:43.513Z,2.80
2022-10-17T15:34:10.651Z,2.77
2022-10-17T15:36:40.092Z,6.47
2022-10-17T15:39:07.239Z,2.20
2022-10-17T15:41:34.431Z,1.83
2022-10-17T15:44:01.549Z,2.27
2022-10-17T15:46:29.943Z,4.37
2022-10-17T15:48:57.601Z,4.30
2022-10-17T15:51:24.858Z,2.63
2022-10-17T15:53:52.003Z,3.30
2022-10-17T15:56:32.504Z,4.83
2022-10-17T15:58:59.692Z,5.23
2022-10-17T16:01:27.706Z,4.47
2022-10-17T16:03:54.832Z,4.27
2022-10-17T16:06:22.229Z,4.40
2022-10-17T16:08:49.671Z,2.87
2022-10-17T16:11:20.437Z,2.40
2022-10-17T16:13:51.011Z,3.67
2022-10-17T16:16:18.159Z,3.10
2022-10-17T16:18:45.360Z,2.90
2022-10-17T16:21:14.167Z,3.33
2022-10-17T16:23:41.399Z,3.80
2022-10-17T16:26:08.785Z,3.33
2022-10-17T16:28:36.196Z,4.00
2022-10-17T16:31:03.528Z,2.87
2022-10-17T16:33:31.454Z,3.43
2022-10-17T16:35:58.532Z,4.10
2022-10-17T16:38:25.701Z,4.00
2022-10-17T16:40:52.843Z,4.00
2022-10-17T16:43:20.019Z,4.27
2022-10-17T16:45:47.167Z,4.20
2022-10-17T16:48:14.838Z,4.90
2022-10-17T16:50:41.988Z,3.90
2022-10-17T16:53:09.084Z,5.53
2022-10-17T16:55:36.279Z,3.70
2022-10-17T16:58:03.583Z,4.33
2022-10-17T17:00:30.864Z,4.27
2022-10-17T17:02:58.148Z,5.70
2022-10-17T17:05:25.406Z,4.40
2022-10-17T17:07:52.664Z,3.67
2022-10-17T17:10:19.827Z,3.63
2022-10-17T17:12:47.023Z,4.10
2022-10-17T17:15:14.320Z,3.50
2022-10-17T17:17:50.500Z,2.97
2022-10-17T17:20:20.594Z,3.83
2022-10-17T17:22:48.627Z,3.40
2022-10-17T17:25:15.777Z,3.97
2022-10-17T17:27:42.943Z,3.67
2022-10-17T17:30:10.251Z,3.47
2022-10-17T17:32:37.492Z,3.87
2022-10-17T17:35:04.749Z,3.90
2022-10-17T17:37:32.210Z,3.30
2022-10-17T17:39:59.693Z,3.30
2022-10-17T17:42:26.957Z,3.77
2022-10-17T17:44:54.110Z,3.57
2022-10-17T17:47:21.276Z,3.10
2022-10-17T17:49:48.488Z,4.40
2022-10-17T17:52:15.648Z,4.40
2022-10-17T17:54:42.957Z,3.57
2022-10-17T17:57:10.111Z,3.50
2022-10-17T17:59:38.840Z,4.23
2022-10-17T18:02:06.815Z,4.60
2022-10-17T18:04:34.098Z,5.10
2022-10-17T18:07:01.227Z,4.87
2022-10-17T18:09:28.533Z,4.67
2022-10-17T18:11:55.675Z,4.77
2022-10-17T18:14:23.842Z,6.30
2022-10-17T18:16:51.132Z,5.67
2022-10-17T18:19:18.356Z,8.00
2022-10-17T18:21:45.472Z,4.60
2022-10-17T18:24:12.686Z,4.50
2022-10-17T18:26:39.794Z,3.87
2022-10-17T18:29:07.143Z,4.47
2022-10-17T18:31:36.003Z,5.00
2022-10-17T18:34:03.654Z,4.97
2022-10-17T18:36:32.315Z,4.57
2022-10-17T18:38:59.914Z,6.13
2022-10-17T18:41:27.020Z,4.10
2022-10-17T18:43:54.659Z,5.93
2022-10-17T18:46:22.853Z,4.20
2022-10-17T18:48:50.127Z,4.13
2022-10-17T18:51:19.385Z,7.47
2022-10-17T18:53:47.318Z,5.50
2022-10-17T18:56:14.821Z,7.57
2022-10-17T18:58:42.003Z,7.53
2022-10-17T19:01:15.400Z,8.97
2022-10-17T19:03:43.151Z,6.20
2022-10-17T19:06:10.720Z,7.00
2022-10-17T19:08:37.892Z,7.07
2022-10-17T19:11:14.808Z,7.93
2022-10-17T19:13:42.880Z,9.47
2022-10-17T19:16:10.718Z,10.87
2022-10-17T19:18:37.906Z,10.43
2022-10-17T19:21:05.583Z,11.20
2022-10-17T19:23:32.808Z,9.00
2022-10-17T19:26:06.725Z,10.70
2022-10-17T19:28:34.182Z,9.10
2022-10-17T19:31:01.447Z,8.30
2022-10-17T19:36:04.751Z,11.20
2022-10-17T19:38:31.869Z,8.90
2022-10-17T19:43:27.166Z,9.20
2022-10-17T19:46:01.153Z,7.10
2022-10-17T19:48:28.323Z,8.87
2022-10-17T19:50:55.503Z,8.20
2022-10-17T19:53:23.526Z,9.53
2022-10-17T19:55:50.948Z,7.40
2022-10-17T19:58:18.039Z,7.30
2022-10-17T20:00:48.656Z,9.13
2022-10-17T20:03:15.960Z,8.50
2022-10-17T20:05:43.087Z,10.37
2022-10-17T20:08:10.276Z,8.60
2022-10-17T20:10:37.369Z,8.30
2022-10-17T20:13:04.455Z,12.47
2022-10-17T20:15:31.556Z,7.77
2022-10-17T20:17:58.641Z,8.50
2022-10-17T20:20:25.838Z,8.43
2022-10-17T20:22:53.034Z,9.20
2022-10-17T20:25:20.350Z,9.80
2022-10-17T20:27:47.517Z,9.27
2022-10-17T20:30:14.736Z,9.50
2022-10-17T20:32:41.985Z,8.57
2022-10-17T20:35:09.400Z,7.93
2022-10-17T20:37:41.707Z,8.80
2022-10-17T20:40:33.458Z,10.00
2022-10-17T20:42:57.446Z,9.00
2022-10-17T20:45:37.521Z,8.13
2022-10-17T20:48:15.276Z,9.40
2022-10-17T20:50:42.688Z,13.63
2022-10-17T20:53:34.881Z,9.80
2022-10-17T20:56:07.016Z,9.83
2022-10-17T20:58:34.240Z,9.47
2022-10-17T21:01:10.952Z,11.30
2022-10-17T21:03:41.035Z,9.90
2022-10-17T21:06:11.397Z,8.90
2022-10-17T21:08:38.814Z,9.77
2022-10-17T21:11:09.574Z,10.13
2022-10-17T21:13:36.681Z,9.17
2022-10-17T21:16:10.559Z,8.40
2022-10-17T21:18:37.843Z,8.60
2022-10-17T21:21:11.989Z,9.70
2022-10-17T21:23:39.619Z,9.93
2022-10-17T21:26:09.132Z,9.00
2022-10-17T21:28:37.527Z,10.17
2022-10-17T21:31:11.036Z,10.30
2022-10-17T21:33:38.175Z,9.63
2022-10-17T21:36:05.655Z,10.70
2022-10-17T21:38:32.800Z,9.70
2022-10-17T21:41:00.032Z,9.73
2022-10-17T21:43:27.350Z,9.67
2022-10-17T21:45:54.448Z,8.90
2022-10-17T21:48:21.792Z,9.43
2022-10-17T21:50:48.976Z,9.73
2022-10-17T21:53:16.134Z,9.20
2022-10-17T21:55:43.204Z,9.57
2022-10-17T21:58:10.384Z,8.73
2022-10-17T22:00:37.514Z,10.53
2022-10-17T22:03:05.895Z,9.33
2022-10-17T22:05:33.015Z,8.93
2022-10-17T22:08:00.154Z,9.77
2022-10-17T22:10:27.305Z,11.13
2022-10-17T22:12:54.417Z,9.13
2022-10-17T22:15:21.629Z,8.97
2022-10-17T22:17:48.882Z,8.97
2022-10-17T22:20:16.162Z,9.60
2022-10-17T22:22:43.299Z,9.60
2022-10-17T22:25:10.407Z,14.23
2022-10-17T22:27:37.534Z,10.00
2022-10-17T22:30:05.345Z,9.47
2022-10-17T22:32:32.483Z,13.73
2022-10-17T22:34:59.603Z,8.50
2022-10-17T22:37:26.679Z,9.90
2022-10-17T22:39:53.848Z,9.03
2022-10-17T22:44:49.739Z,8.80
2022-10-17T22:47:16.835Z,8.97
2022-10-17T22:49:43.951Z,11.57
2022-10-17T22:52:11.019Z,9.80
2022-10-17T22:54:38.132Z,9.17
2022-10-17T22:57:05.242Z,8.90
2022-10-17T22:59:32.494Z,8.60
2022-10-17T23:01:59.717Z,8.80
2022-10-17T23:04:27.352Z,8.77
2022-10-17T23:06:54.549Z,9.47
2022-10-17T23:09:21.821Z,9.70
2022-10-17T23:11:48.983Z,9.10
2022-10-17T23:14:16.171Z,9.17
2022-10-17T23:16:45.100Z,9.70
2022-10-17T23:19:12.271Z,9.03
2022-10-17T23:21:39.416Z,9.10
2022-10-17T23:24:06.775Z,9.93
2022-10-17T23:26:33.882Z,9.47
2022-10-17T23:29:01.081Z,10.10
2022-10-17T23:31:28.198Z,8.73
2022-10-17T23:33:55.342Z,10.00
2022-10-17T23:36:22.701Z,7.90
2022-10-17T23:38:52.610Z,10.83
2022-10-17T23:41:22.132Z,7.83
2022-10-17T23:43:49.424Z,9.17
2022-10-17T23:46:16.548Z,8.37
2022-10-17T23:48:43.791Z,11.13
2022-10-17T23:51:11.188Z,9.03
2022-10-17T23:53:38.632Z,7.50
2022-10-17T23:56:05.869Z,9.73
2022-10-17T23:58:33.006Z,8.63
